createdAt,value
2022-11-22T00:00:55.661Z,12.27
2022-11-22T00:03:23.798Z,17.40
2022-11-22T00:05:51.928Z,22.40
2022-11-22T00:08:19.884Z,16.70
2022-11-22T00:10:50.956Z,13.30
2022-11-22T00:13:19.170Z,17.10
2022-11-22T00:15:47.334Z,14.83
2022-11-22T00:18:15.355Z,19.53
2022-11-22T00:20:43.260Z,18.10
2022-11-22T00:23:11.212Z,16.83
2022-11-22T00:25:39.153Z,16.37
2022-11-22T00:28:08.436Z,15.57
2022-11-22T00:30:36.342Z,16.70
2022-11-22T00:33:04.278Z,19.03
2022-11-22T00:35:32.278Z,20.10
2022-11-22T00:38:00.218Z,19.53
2022-11-22T00:40:28.206Z,21.17
2022-11-22T00:42:56.336Z,18.40
2022-11-22T00:45:25.591Z,20.67
2022-11-22T00:47:53.708Z,23.77
2022-11-22T00:50:21.718Z,22.37
2022-11-22T00:52:49.706Z,23.03
2022-11-22T00:55:17.898Z,22.43
2022-11-22T00:57:45.870Z,28.10
2022-11-22T01:00:14.623Z,25.90
2022-11-22T01:02:43.941Z,29.90
2022-11-22T01:05:11.884Z,33.47
2022-11-22T01:07:40.199Z,30.80
2022-11-22T01:10:09.115Z,32.07
2022-11-22T01:12:37.464Z,29.03
2022-11-22T01:15:06.221Z,30.23
2022-11-22T01:17:34.153Z,38.40
2022-11-22T01:20:03.824Z,34.77
2022-11-22T01:22:31.862Z,29.70
2022-11-22T01:24:59.793Z,41.60
2022-11-22T01:27:27.732Z,41.40
2022-11-22T01:29:55.664Z,45.23
2022-11-22T01:32:23.609Z,33.20
2022-11-22T01:34:51.558Z,36.03
2022-11-22T01:37:20.857Z,41.60
2022-11-22T01:39:48.752Z,45.87
2022-11-22T01:42:16.838Z,36.80
2022-11-22T01:44:45.262Z,45.53
2022-11-22T01:47:15.666Z,42.70
2022-11-22T01:49:47.028Z,44.03
2022-11-22T01:52:18.566Z,43.90
2022-11-22T01:54:52.017Z,46.77
2022-11-22T01:57:25.197Z,50.60
2022-11-22T01:59:59.389Z,70.83
2022-11-22T02:02:28.488Z,80.07
2022-11-22T02:04:59.502Z,84.43
2022-11-22T02:07:32.651Z,112.40
2022-11-22T02:10:02.038Z,163.90
2022-11-22T02:12:31.790Z,70.87
2022-11-22T02:15:00.321Z,134.70
2022-11-22T02:17:28.897Z,119.27
2022-11-22T02:19:57.141Z,154.50
2022-11-22T02:22:33.406Z,85.00
2022-11-22T02:25:08.717Z,91.00
2022-11-22T02:27:38.392Z,115.70
2022-11-22T02:30:07.323Z,175.23
2022-11-22T02:32:35.371Z,71.43
2022-11-22T02:35:03.700Z,71.80
2022-11-22T02:37:34.394Z,75.80
2022-11-22T02:40:08.704Z,88.07
2022-11-22T02:42:38.127Z,117.43
2022-11-22T02:45:06.709Z,90.50
2022-11-22T02:47:34.666Z,97.27
2022-11-22T02:50:02.598Z,119.13
2022-11-22T02:52:30.530Z,95.97
2022-11-22T02:54:58.661Z,83.03
2022-11-22T02:57:26.570Z,85.80
2022-11-22T02:59:55.864Z,91.57
2022-11-22T03:02:23.792Z,61.93
2022-11-22T03:04:51.708Z,95.47
2022-11-22T03:07:19.738Z,125.20
2022-11-22T03:09:47.690Z,119.23
2022-11-22T03:12:15.584Z,42.17
2022-11-22T03:14:43.854Z,116.17
2022-11-22T03:17:14.193Z,71.90
2022-11-22T03:19:42.116Z,59.50
2022-11-22T03:22:11.629Z,96.40
2022-11-22T03:24:39.992Z,77.23
2022-11-22T03:27:07.921Z,71.17
2022-11-22T03:29:35.829Z,57.43
2022-11-22T03:32:03.838Z,50.67
2022-11-22T03:34:33.142Z,43.10
2022-11-22T03:37:01.158Z,52.17
2022-11-22T03:39:29.379Z,70.70
2022-11-22T03:41:57.455Z,53.03
2022-11-22T03:44:25.366Z,63.57
2022-11-22T03:46:53.341Z,53.20
2022-11-22T03:49:21.317Z,43.53
2022-11-22T03:51:50.570Z,55.03
2022-11-22T03:54:18.602Z,54.83
2022-11-22T03:56:46.618Z,53.33
2022-11-22T03:59:14.527Z,38.67
2022-11-22T04:01:42.501Z,39.20
2022-11-22T04:04:11.453Z,48.93
2022-11-22T04:06:40.035Z,49.20
2022-11-22T04:09:09.556Z,50.37
2022-11-22T04:11:37.520Z,45.20
2022-11-22T04:14:28.488Z,42.43
2022-11-22T04:16:56.545Z,39.70
2022-11-22T04:19:24.496Z,46.43
2022-11-22T04:21:51.527Z,41.57
2022-11-22T04:24:43.357Z,51.73
2022-11-22T04:27:11.268Z,53.97
2022-11-22T04:29:39.194Z,41.57
2022-11-22T04:32:24.846Z,47.17
2022-11-22T04:34:52.808Z,36.37
2022-11-22T04:37:20.777Z,38.60
2022-11-22T04:39:50.132Z,28.93
2022-11-22T04:42:35.458Z,29.10
2022-11-22T04:45:03.530Z,29.73
2022-11-22T04:47:50.484Z,31.60
2022-11-22T04:50:32.705Z,30.20
2022-11-22T04:53:00.632Z,30.33
2022-11-22T04:55:30.255Z,30.47
2022-11-22T04:58:00.232Z,41.63
2022-11-22T05:00:28.911Z,32.33
2022-11-22T05:02:57.445Z,33.70
2022-11-22T05:05:26.121Z,28.97
2022-11-22T05:07:54.051Z,27.37
2022-11-22T05:10:26.547Z,26.10
2022-11-22T05:12:57.105Z,29.33
2022-11-22T05:15:25.366Z,26.57
2022-11-22T05:17:53.444Z,28.23
2022-11-22T05:20:21.473Z,26.30
2022-11-22T05:23:12.391Z,28.90
2022-11-22T05:25:40.303Z,27.03
2022-11-22T05:28:09.637Z,25.57
2022-11-22T05:30:40.369Z,27.73
2022-11-22T05:33:08.584Z,25.27
2022-11-22T05:35:36.538Z,28.83
2022-11-22T05:38:04.579Z,21.10
2022-11-22T05:40:32.581Z,25.37
2022-11-22T05:43:00.694Z,24.40
2022-11-22T05:45:30.175Z,27.50
2022-11-22T05:47:58.241Z,22.53
2022-11-22T05:50:26.174Z,24.50
2022-11-22T05:52:54.421Z,31.03
2022-11-22T05:55:22.390Z,30.93
2022-11-22T05:57:50.291Z,26.20
2022-11-22T06:00:19.463Z,23.37
2022-11-22T06:02:48.844Z,21.93
2022-11-22T06:05:16.861Z,21.27
2022-11-22T06:07:44.843Z,26.40
2022-11-22T06:10:12.991Z,26.20
2022-11-22T06:12:40.904Z,22.03
2022-11-22T06:15:10.050Z,28.67
2022-11-22T06:17:37.996Z,27.87
2022-11-22T06:20:08.699Z,25.10
2022-11-22T06:22:36.660Z,21.77
2022-11-22T06:25:05.240Z,27.80
2022-11-22T06:27:33.147Z,31.17
2022-11-22T06:30:01.198Z,24.57
2022-11-22T06:32:29.207Z,27.13
2022-11-22T06:34:57.096Z,40.53
2022-11-22T06:37:26.421Z,41.13
2022-11-22T06:39:54.416Z,29.50
2022-11-22T06:42:22.447Z,41.13
2022-11-22T06:44:50.357Z,22.43
2022-11-22T06:47:18.553Z,25.43
2022-11-22T06:49:46.989Z,26.43
2022-11-22T06:52:14.938Z,24.57
2022-11-22T06:54:44.294Z,23.27
2022-11-22T06:57:15.172Z,26.13
2022-11-22T06:59:43.149Z,21.63
2022-11-22T07:02:12.875Z,25.47
2022-11-22T07:04:56.331Z,26.27
2022-11-22T07:07:28.872Z,46.40
2022-11-22T07:09:58.227Z,29.20
2022-11-22T07:12:26.839Z,28.80
2022-11-22T07:14:54.795Z,26.30
2022-11-22T07:17:22.905Z,29.93
2022-11-22T07:19:50.820Z,20.97
2022-11-22T07:22:18.739Z,18.90
2022-11-22T07:24:46.705Z,17.60
2022-11-22T07:27:16.069Z,17.80
2022-11-22T07:29:43.989Z,18.60
2022-11-22T07:32:11.924Z,19.97
2022-11-22T07:34:39.899Z,24.17
2022-11-22T07:37:09.351Z,22.37
2022-11-22T07:39:37.506Z,23.03
2022-11-22T07:42:05.547Z,28.70
2022-11-22T07:44:34.877Z,19.77
2022-11-22T07:47:03.073Z,21.77
2022-11-22T07:49:32.573Z,20.83
2022-11-22T07:52:00.880Z,21.27
2022-11-22T07:54:28.805Z,24.43
2022-11-22T07:56:56.740Z,23.97
2022-11-22T07:59:25.139Z,27.17
2022-11-22T08:01:54.587Z,34.27
2022-11-22T08:04:22.563Z,19.03
2022-11-22T08:06:50.573Z,15.70
2022-11-22T08:09:18.520Z,36.00
2022-11-22T08:11:46.456Z,22.17
2022-11-22T08:14:14.465Z,16.33
2022-11-22T08:16:42.502Z,16.57
2022-11-22T08:19:15.971Z,25.17
2022-11-22T08:21:44.010Z,24.50
2022-11-22T08:24:12.357Z,18.00
2022-11-22T08:26:40.291Z,24.37
2022-11-22T08:29:13.954Z,16.67
2022-11-22T08:31:42.429Z,15.13
2022-11-22T08:34:11.727Z,27.63
2022-11-22T08:36:39.827Z,21.17
2022-11-22T08:39:07.947Z,31.27
2022-11-22T08:41:35.907Z,20.70
2022-11-22T08:44:03.833Z,37.30
2022-11-22T08:46:31.754Z,19.20
2022-11-22T08:48:59.772Z,36.23
2022-11-22T08:51:29.174Z,23.57
2022-11-22T08:53:57.209Z,16.60
2022-11-22T08:56:25.204Z,15.60
2022-11-22T08:58:53.379Z,19.10
2022-11-22T09:01:23.271Z,25.13
2022-11-22T09:03:51.384Z,19.07
2022-11-22T09:11:58.902Z,20.33
2022-11-22T09:14:26.837Z,22.60
2022-11-22T09:16:54.790Z,28.03
2022-11-22T09:19:22.861Z,20.63
2022-11-22T09:21:50.827Z,16.40
2022-11-22T09:24:20.320Z,21.73
2022-11-22T09:26:48.233Z,20.97
2022-11-22T09:29:16.383Z,19.87
2022-11-22T09:31:44.571Z,20.90
2022-11-22T09:34:12.631Z,19.67
2022-11-22T09:36:40.881Z,17.60
2022-11-22T09:39:10.173Z,18.17
2022-11-22T09:42:02.485Z,16.57
2022-11-22T09:44:43.225Z,58.80
2022-11-22T09:47:21.846Z,20.53
2022-11-22T09:50:02.278Z,18.40
2022-11-22T09:52:35.801Z,24.23
2022-11-22T09:55:10.672Z,19.27
2022-11-22T09:57:45.206Z,21.23
2022-11-22T10:00:20.353Z,18.30
2022-11-22T10:03:00.451Z,29.83
2022-11-22T10:05:34.199Z,18.83
2022-11-22T10:08:09.173Z,21.60
2022-11-22T10:10:42.964Z,17.73
2022-11-22T10:13:18.014Z,19.13
2022-11-22T10:15:53.733Z,19.97
2022-11-22T10:18:31.156Z,19.90
2022-11-22T10:20:59.146Z,18.17
2022-11-22T10:23:28.047Z,22.47
2022-11-22T10:25:59.543Z,17.70
2022-11-22T10:28:35.308Z,22.77
2022-11-22T10:31:08.995Z,19.07
2022-11-22T10:33:44.338Z,20.40
2022-11-22T10:36:36.084Z,18.77
2022-11-22T10:39:18.634Z,18.77
2022-11-22T10:42:03.344Z,18.93
2022-11-22T10:44:46.209Z,23.40
2022-11-22T10:47:31.575Z,19.60
2022-11-22T10:50:07.292Z,25.87
2022-11-22T10:52:44.999Z,29.90
2022-11-22T10:55:24.305Z,25.30
2022-11-22T10:58:02.883Z,25.33
2022-11-22T11:00:36.106Z,22.77
2022-11-22T11:03:17.941Z,21.93
2022-11-22T11:06:21.100Z,19.67
2022-11-22T11:09:12.175Z,37.80
2022-11-22T11:11:31.314Z,22.80
2022-11-22T11:14:03.293Z,24.87
2022-11-22T11:16:37.335Z,19.57
2022-11-22T11:19:15.114Z,22.73
2022-11-22T11:21:43.112Z,22.10
2022-11-22T11:24:14.905Z,25.30
2022-11-22T11:26:45.227Z,19.30
2022-11-22T11:29:38.910Z,19.67
2022-11-22T11:32:10.898Z,20.00
2022-11-22T11:34:41.140Z,24.20
2022-11-22T11:37:22.164Z,31.60
2022-11-22T11:39:50.344Z,290.33
2022-11-22T11:42:27.808Z,45.33
2022-11-22T11:45:28.169Z,28.63
2022-11-22T11:47:57.777Z,31.00
2022-11-22T11:50:28.125Z,30.40
2022-11-22T11:52:57.874Z,30.43
2022-11-22T11:55:31.387Z,31.73
2022-11-22T11:57:59.525Z,93.47
2022-11-22T12:00:36.023Z,50.43
2022-11-22T12:03:09.069Z,29.30
2022-11-22T12:05:37.105Z,60.63
2022-11-22T12:08:27.540Z,40.67
2022-11-22T12:11:02.822Z,44.70
2022-11-22T12:13:51.737Z,34.20
2022-11-22T12:16:29.834Z,39.73
2022-11-22T12:19:05.813Z,25.10
2022-11-22T12:21:41.690Z,29.33
2022-11-22T12:27:03.131Z,25.17
2022-11-22T12:29:34.674Z,26.63
2022-11-22T12:32:08.805Z,27.93
2022-11-22T12:34:47.702Z,21.40
2022-11-22T12:37:19.369Z,25.40
2022-11-22T12:39:48.978Z,23.23
2022-11-22T12:42:23.011Z,21.40
2022-11-22T12:44:55.104Z,24.40
2022-11-22T12:47:29.817Z,24.93
2022-11-22T12:50:04.364Z,26.47
2022-11-22T12:52:39.350Z,24.60
2022-11-22T12:55:17.752Z,24.93
2022-11-22T12:57:52.499Z,26.73
2022-11-22T13:00:22.222Z,33.90
2022-11-22T13:03:01.181Z,26.53
2022-11-22T13:05:37.900Z,30.50
2022-11-22T13:08:14.809Z,24.10
2022-11-22T13:10:50.991Z,25.77
2022-11-22T13:13:25.590Z,28.23
2022-11-22T13:15:55.505Z,30.83
2022-11-22T13:18:28.423Z,26.70
2022-11-22T13:21:07.934Z,25.10
2022-11-22T13:24:04.574Z,23.57
2022-11-22T13:26:39.847Z,26.10
2022-11-22T13:29:16.909Z,21.87
2022-11-22T13:32:04.325Z,23.70
2022-11-22T13:34:34.015Z,25.40
2022-11-22T13:37:13.433Z,23.57
2022-11-22T13:39:46.256Z,22.73
2022-11-22T13:42:20.365Z,24.20
2022-11-22T13:45:06.000Z,24.10
2022-11-22T13:47:39.442Z,22.80
2022-11-22T13:50:56.646Z,25.17
2022-11-22T13:53:30.357Z,23.40
2022-11-22T13:56:09.831Z,26.23
2022-11-22T13:58:52.801Z,24.77
2022-11-22T14:02:03.804Z,23.30
2022-11-22T14:04:43.608Z,21.43
2022-11-22T14:07:37.434Z,55.67
2022-11-22T14:10:28.153Z,49.97
2022-11-22T14:13:15.255Z,30.73
2022-11-22T14:15:55.344Z,26.50
2022-11-22T14:18:55.559Z,29.30
2022-11-22T14:21:44.915Z,20.40
2022-11-22T14:24:22.306Z,28.67
2022-11-22T14:27:02.391Z,31.97
2022-11-22T14:30:05.352Z,28.83
2022-11-22T14:32:56.537Z,24.03
2022-11-22T14:35:29.815Z,23.63
2022-11-22T14:38:29.622Z,24.40
2022-11-22T14:41:31.948Z,32.40
2022-11-22T14:44:03.361Z,32.30
2022-11-22T14:46:52.685Z,32.73
2022-11-22T14:49:30.030Z,26.33
2022-11-22T14:51:59.606Z,34.80
2022-11-22T14:54:32.920Z,38.73
2022-11-22T14:57:06.156Z,31.83
2022-11-22T14:59:55.530Z,46.27
2022-11-22T15:03:07.500Z,43.23
2022-11-22T15:09:11.956Z,33.30
2022-11-22T15:09:21.464Z,38.47
2022-11-22T15:12:03.816Z,41.60
2022-11-22T15:58:05.634Z,36.67
2022-11-22T16:00:35.681Z,39.03
2022-11-22T16:03:06.614Z,46.70
2022-11-22T16:06:09.036Z,37.63
2022-11-22T16:08:30.983Z,44.10
2022-11-22T16:11:01.210Z,41.97
2022-11-22T16:13:34.136Z,49.60
2022-11-22T16:16:08.089Z,41.03
2022-11-22T16:18:36.105Z,50.17
2022-11-22T16:21:05.571Z,37.07
2022-11-22T16:23:37.342Z,42.50
2022-11-22T16:26:21.777Z,68.57
2022-11-22T16:28:51.518Z,45.50
2022-11-22T16:31:22.945Z,44.37
2022-11-22T16:33:51.955Z,38.50
2022-11-22T16:36:21.856Z,44.40
2022-11-22T16:38:51.746Z,42.20
2022-11-22T16:41:21.211Z,47.10
2022-11-22T16:43:51.133Z,47.27
2022-11-22T16:46:19.682Z,39.93
2022-11-22T16:48:47.842Z,38.67
2022-11-22T16:51:18.123Z,40.20
2022-11-22T16:53:47.880Z,40.00
2022-11-22T16:56:19.756Z,42.17
2022-11-22T16:58:48.843Z,41.13
2022-11-22T17:01:18.913Z,43.87
2022-11-22T17:03:49.395Z,51.20
2022-11-22T17:06:19.406Z,47.70
2022-11-22T17:08:48.255Z,40.73
2022-11-22T17:11:19.319Z,49.97
2022-11-22T17:13:47.982Z,44.90
2022-11-22T17:16:17.643Z,52.37
2022-11-22T17:18:46.883Z,49.37
2022-11-22T17:21:19.906Z,33.67
2022-11-22T17:23:48.163Z,39.77
2022-11-22T17:26:16.272Z,39.80
2022-11-22T17:28:45.682Z,39.03
2022-11-22T17:31:15.320Z,41.40
2022-11-22T17:33:43.409Z,35.60
2022-11-22T17:36:24.175Z,37.47
2022-11-22T17:38:52.133Z,42.63
2022-11-22T17:41:20.433Z,43.07
2022-11-22T17:43:50.328Z,39.10
2022-11-22T17:46:18.271Z,41.00
2022-11-22T17:48:52.768Z,35.30
2022-11-22T17:51:21.693Z,34.97
2022-11-22T17:53:50.297Z,33.13
2022-11-22T17:56:18.654Z,33.70
2022-11-22T17:58:47.214Z,39.27
2022-11-22T18:01:17.799Z,35.70
2022-11-22T18:03:47.462Z,35.50
2022-11-22T18:06:17.101Z,40.80
2022-11-22T18:08:47.274Z,40.40
2022-11-22T18:11:16.064Z,41.40
2022-11-22T18:13:45.214Z,45.37
2022-11-22T18:16:15.582Z,45.20
2022-11-22T18:18:56.613Z,33.73
2022-11-22T18:21:25.510Z,34.70
2022-11-22T18:23:53.605Z,36.47
2022-11-22T18:26:38.830Z,34.40
2022-11-22T18:31:56.699Z,63.63
2022-11-22T18:34:28.446Z,60.30
2022-11-22T18:37:04.866Z,41.47
2022-11-22T18:42:24.971Z,45.60
2022-11-22T18:44:57.251Z,36.40
2022-11-22T18:47:25.174Z,35.40
2022-11-22T18:49:54.516Z,38.43
2022-11-22T18:52:23.002Z,34.03
2022-11-22T18:54:51.685Z,36.63
2022-11-22T18:57:19.663Z,34.33
2022-11-22T18:59:47.642Z,43.20
2022-11-22T19:02:15.603Z,42.07
2022-11-22T19:04:43.581Z,39.47
2022-11-22T19:07:14.578Z,39.77
2022-11-22T19:09:42.773Z,33.87
2022-11-22T19:12:11.085Z,35.33
2022-11-22T19:14:39.324Z,34.10
2022-11-22T19:17:07.353Z,45.50
2022-11-22T19:19:35.416Z,37.30
2022-11-22T19:22:04.409Z,37.97
2022-11-22T19:24:34.423Z,51.63
2022-11-22T19:27:02.550Z,44.37
2022-11-22T19:29:31.126Z,42.73
2022-11-22T19:31:59.529Z,36.53
2022-11-22T19:34:29.518Z,50.37
2022-11-22T19:37:00.205Z,45.83
2022-11-22T19:39:29.339Z,42.37
2022-11-22T19:41:59.010Z,36.00
2022-11-22T19:44:27.044Z,33.97
2022-11-22T19:46:55.008Z,38.37
2022-11-22T19:49:23.071Z,39.60
2022-11-22T19:51:51.119Z,38.43
2022-11-22T19:54:19.078Z,37.53
2022-11-22T19:56:47.485Z,35.80
2022-11-22T19:59:18.265Z,41.30
2022-11-22T20:01:46.338Z,37.30
2022-11-22T20:04:16.422Z,34.77
2022-11-22T20:06:49.703Z,37.80
2022-11-22T20:09:18.235Z,37.40
2022-11-22T20:11:46.882Z,36.40
2022-11-22T20:14:16.220Z,36.87
2022-11-22T20:16:44.260Z,50.83
2022-11-22T20:19:12.404Z,51.60
2022-11-22T20:21:41.069Z,50.27
2022-11-22T20:24:09.574Z,51.47
2022-11-22T20:26:37.567Z,63.77
2022-11-22T20:29:08.599Z,58.70
2022-11-22T20:31:38.560Z,45.90
2022-11-22T20:34:06.686Z,45.63
2022-11-22T20:36:35.685Z,43.20
2022-11-22T20:39:09.826Z,47.80
2022-11-22T20:41:39.501Z,51.27
2022-11-22T20:44:07.747Z,44.00
2022-11-22T20:46:38.674Z,47.47
2022-11-22T20:49:06.845Z,54.53
2022-11-22T20:51:36.187Z,42.60
2022-11-22T20:54:04.283Z,45.37
2022-11-22T20:56:32.488Z,37.73
2022-11-22T20:59:01.125Z,41.13
2022-11-22T21:01:32.223Z,46.90
2022-11-22T21:04:01.600Z,46.10
2022-11-22T21:06:29.781Z,39.33
2022-11-22T21:08:57.830Z,50.43
2022-11-22T21:11:27.665Z,45.53
2022-11-22T21:13:56.614Z,38.97
2022-11-22T21:16:26.194Z,47.00
2022-11-22T21:18:55.881Z,42.47
2022-11-22T21:21:26.299Z,45.87
2022-11-22T21:23:55.583Z,44.07
2022-11-22T21:26:24.530Z,49.30
2022-11-22T21:28:53.050Z,49.53
2022-11-22T21:31:22.447Z,50.73
2022-11-22T21:33:51.080Z,45.63
2022-11-22T21:36:19.760Z,53.33
2022-11-22T21:38:49.090Z,52.30
2022-11-22T21:44:06.617Z,51.10
2022-11-22T21:46:34.588Z,52.90
2022-11-22T21:49:05.360Z,59.33
2022-11-22T21:51:33.516Z,63.50
2022-11-22T21:54:03.620Z,58.50
2022-11-22T21:56:32.539Z,60.30
2022-11-22T21:59:00.754Z,53.57
2022-11-22T22:01:29.193Z,49.60
2022-11-22T22:03:57.368Z,62.80
2022-11-22T22:06:25.463Z,51.73
2022-11-22T22:08:53.504Z,62.73
2022-11-22T22:11:23.008Z,60.90
2022-11-22T22:13:52.846Z,71.17
2022-11-22T22:16:23.425Z,60.73
2022-11-22T22:18:51.646Z,71.50
2022-11-22T22:21:20.715Z,59.77
2022-11-22T22:23:48.770Z,74.63
2022-11-22T22:26:18.030Z,72.40
2022-11-22T22:28:47.775Z,73.80
2022-11-22T22:31:21.216Z,74.77
2022-11-22T22:33:50.453Z,63.67
2022-11-22T22:36:18.400Z,65.13
2022-11-22T22:38:46.665Z,62.10
2022-11-22T22:41:14.794Z,62.10
2022-11-22T22:43:44.416Z,63.23
2022-11-22T22:46:15.907Z,79.93
2022-11-22T22:48:44.405Z,71.77
2022-11-22T22:51:14.241Z,78.90
2022-11-22T22:53:43.446Z,60.60
2022-11-22T22:56:12.853Z,73.40
2022-11-22T22:58:41.098Z,71.77
2022-11-22T23:01:11.693Z,63.43
2022-11-22T23:03:41.017Z,70.03
2022-11-22T23:06:10.863Z,77.40
2022-11-22T23:08:39.865Z,66.53
2022-11-22T23:11:09.482Z,72.67
2022-11-22T23:13:39.130Z,66.90
2022-11-22T23:16:09.674Z,68.73
2022-11-22T23:18:39.542Z,59.10
2022-11-22T23:21:12.101Z,58.90
2022-11-22T23:23:40.129Z,66.10
2022-11-22T23:26:10.329Z,58.00
2022-11-22T23:28:38.778Z,68.30
2022-11-22T23:31:08.260Z,63.23
2022-11-22T23:33:36.737Z,66.07
2022-11-22T23:36:06.129Z,59.43
2022-11-22T23:38:36.082Z,62.17
2022-11-22T23:41:04.262Z,63.30
2022-11-22T23:43:32.589Z,62.33
2022-11-22T23:46:00.652Z,58.00
2022-11-22T23:48:28.762Z,64.80
2022-11-22T23:50:57.028Z,67.13
2022-11-22T23:53:25.794Z,75.77
2022-11-22T23:55:55.129Z,59.27
2022-11-22T23:58:23.086Z,64.93
